Time;durP1;ratioP1;P1;durP2;ratioP2;P2;SDS_P1;SDS_P2;PMS_P1;PMS_P2;Temp;Humidity;BMP_temperature;BMP_pressure;BME280_temperature;BME280_humidity;BME280_pressure;Samples;Min_cycle;Max_cycle;Signal;HPM_P1;HPM_P2
2022/08/19 00:01:55;;;;;;;2.67;2.30;;;28.10;51.20;;;;;;5062996;28;20029;-63
2022/08/19 00:04:24;;;;;;;3.28;2.45;;;28.10;51.20;;;;;;5063579;28;20448;-63
2022/08/19 00:06:51;;;;;;;2.75;2.30;;;28.10;51.10;;;;;;5061719;28;20502;-64
2022/08/19 00:09:19;;;;;;;2.78;2.40;;;28.00;51.10;;;;;;5063486;28;20107;-64
2022/08/19 00:11:45;;;;;;;3.38;2.40;;;28.00;51.10;;;;;;5063454;28;20029;-63
2022/08/19 00:14:13;;;;;;;3.83;2.45;;;28.00;51.10;;;;;;5062853;28;20083;-63
2022/08/19 00:16:41;;;;;;;3.63;2.47;;;28.00;51.10;;;;;;5063933;28;20508;-64
2022/08/19 00:19:06;;;;;;;3.00;2.30;;;28.00;51.10;;;;;;5063993;28;20127;-64
2022/08/19 00:21:39;;;;;;;2.55;2.15;;;27.90;51.10;;;;;;5062575;28;20029;-64
2022/08/19 00:24:09;;;;;;;2.60;2.17;;;28.00;51.10;;;;;;5063173;28;20032;-64
2022/08/19 00:26:35;;;;;;;2.50;2.20;;;27.90;51.10;;;;;;5063243;28;20029;-63
2022/08/19 00:29:03;;;;;;;2.60;2.13;;;27.90;51.10;;;;;;5063153;28;20025;-64
2022/08/19 00:31:28;;;;;;;3.15;2.20;;;27.90;51.20;;;;;;5062976;28;20040;-64
2022/08/19 00:33:54;;;;;;;3.13;2.20;;;27.90;51.10;;;;;;5062849;28;20029;-64
2022/08/19 00:36:20;;;;;;;2.33;2.10;;;27.90;51.10;;;;;;5064126;28;20550;-64
2022/08/19 00:38:46;;;;;;;2.50;2.20;;;27.90;51.10;;;;;;5061834;28;20496;-64
2022/08/19 00:41:20;;;;;;;3.13;2.15;;;27.90;51.20;;;;;;5064935;28;20498;-64
2022/08/19 00:44:05;;;;;;;2.88;2.30;;;27.80;51.10;;;;;;5060638;28;20064;-64
2022/08/19 00:46:32;;;;;;;2.45;2.03;;;27.80;51.10;;;;;;5063327;28;20032;-64
2022/08/19 00:49:00;;;;;;;2.40;2.13;;;27.80;51.10;;;;;;5061828;28;20026;-64
2022/08/19 00:51:29;;;;;;;2.67;2.15;;;27.80;51.30;;;;;;5063749;28;20033;-64
2022/08/19 00:53:58;;;;;;;3.20;2.05;;;27.80;51.10;;;;;;5059643;28;20021;-64
2022/08/19 00:56:26;;;;;;;2.67;2.10;;;27.80;51.10;;;;;;5062696;28;20029;-64
2022/08/19 00:58:51;;;;;;;2.67;2.00;;;27.80;51.70;;;;;;5063289;28;20020;-64
2022/08/19 01:01:17;;;;;;;2.58;2.00;;;27.80;51.20;;;;;;5062766;28;20569;-65
2022/08/19 01:03:43;;;;;;;2.90;2.20;;;27.80;51.20;;;;;;5061782;28;20067;-64
2022/08/19 01:06:08;;;;;;;2.65;2.20;;;27.80;51.20;;;;;;5063250;28;20032;-64
2022/08/19 01:08:34;;;;;;;2.30;1.83;;;27.70;51.10;;;;;;5045166;28;20037;-64
2022/08/19 01:11:00;;;;;;;2.28;2.05;;;27.70;51.20;;;;;;5061564;28;20036;-64
2022/08/19 01:13:30;;;;;;;2.67;1.92;;;27.70;51.10;;;;;;5063302;28;20048;-64
2022/08/19 01:16:01;;;;;;;2.67;2.00;;;27.70;51.20;;;;;;5062718;28;20067;-64
2022/08/19 01:18:27;;;;;;;2.33;1.92;;;27.70;51.20;;;;;;5061601;28;20016;-65
2022/08/19 01:20:56;;;;;;;2.60;1.95;;;27.70;51.20;;;;;;5062013;28;20384;-65
2022/08/19 01:23:42;;;;;;;3.28;2.28;;;27.70;51.20;;;;;;5062198;28;20422;-63
2022/08/19 01:26:08;;;;;;;2.20;1.90;;;27.70;51.20;;;;;;5060167;28;20063;-65
2022/08/19 01:28:35;;;;;;;2.42;1.98;;;27.70;51.30;;;;;;5061959;28;20035;-64
2022/08/19 01:31:01;;;;;;;2.88;1.95;;;27.60;51.20;;;;;;5060965;28;20396;-65
2022/08/19 01:33:27;;;;;;;2.75;2.20;;;27.60;51.30;;;;;;5061889;28;20024;-64
2022/08/19 01:35:52;;;;;;;2.50;2.00;;;27.60;51.30;;;;;;5061747;28;20036;-64
2022/08/19 01:38:26;;;;;;;2.50;2.08;;;27.60;51.30;;;;;;5061995;28;20488;-64
2022/08/19 01:40:52;;;;;;;2.20;1.90;;;27.60;51.30;;;;;;5060586;28;20025;-64
2022/08/19 01:43:19;;;;;;;2.20;1.80;;;27.60;51.30;;;;;;5061483;28;20020;-64
2022/08/19 01:45:46;;;;;;;2.30;1.90;;;27.60;51.30;;;;;;5061948;28;20029;-64
2022/08/19 01:48:12;;;;;;;2.70;1.98;;;27.60;51.30;;;;;;5061924;28;20509;-64
2022/08/19 01:50:38;;;;;;;2.40;1.90;;;27.60;51.90;;;;;;5060810;28;20465;-64
2022/08/19 01:53:07;;;;;;;2.10;1.80;;;27.60;51.30;;;;;;5061827;28;20049;-64
2022/08/19 01:55:34;;;;;;;2.90;2.03;;;27.50;51.30;;;;;;5061413;28;20038;-64
2022/08/19 01:58:02;;;;;;;2.17;1.75;;;27.50;51.30;;;;;;5060672;28;20484;-64
2022/08/19 02:00:30;;;;;;;2.03;1.80;;;27.50;51.30;;;;;;5060610;28;20148;-64
2022/08/19 02:02:56;;;;;;;2.10;1.73;;;27.50;51.40;;;;;;5061699;28;20052;-64
2022/08/19 02:05:22;;;;;;;2.35;2.00;;;27.50;51.40;;;;;;5061288;28;20029;-63
2022/08/19 02:07:48;;;;;;;2.03;1.70;;;27.50;51.40;;;;;;5062473;28;20036;-63
2022/08/19 02:10:18;;;;;;;2.08;1.77;;;27.50;51.40;;;;;;5060860;28;20496;-63
2022/08/19 02:12:44;;;;;;;2.55;1.92;;;27.50;51.40;;;;;;5060428;28;20055;-63
2022/08/19 02:15:10;;;;;;;2.28;1.67;;;27.50;51.40;;;;;;5060483;28;20029;-63
2022/08/19 02:17:36;;;;;;;2.55;1.90;;;27.40;51.30;;;;;;5062491;28;20025;-63
2022/08/19 02:20:03;;;;;;;2.30;1.80;;;27.40;51.40;;;;;;5060512;28;20439;-63
2022/08/19 02:22:28;;;;;;;3.38;1.90;;;27.40;51.40;;;;;;5060619;28;20036;-64
2022/08/19 02:24:54;;;;;;;2.20;1.70;;;27.50;51.40;;;;;;5060554;28;20083;-64
2022/08/19 02:27:21;;;;;;;2.20;1.80;;;27.40;51.30;;;;;;5060204;28;20036;-64
2022/08/19 02:29:48;;;;;;;2.33;1.70;;;27.40;51.40;;;;;;5061341;28;20033;-64
2022/08/19 02:32:14;;;;;;;2.60;2.10;;;27.40;51.40;;;;;;5060034;28;20112;-64
2022/08/19 02:34:40;;;;;;;2.17;1.80;;;27.40;51.40;;;;;;5060904;28;20432;-64
2022/08/19 02:38:24;;;;;;;2.15;1.83;;;27.40;51.40;;;;;;5061524;28;20500;-64
2022/08/19 02:39:52;;;;;;;2.10;1.70;;;27.40;51.40;;;;;;5058882;28;20035;-63
2022/08/19 02:42:17;;;;;;;2.00;1.70;;;27.40;51.40;;;;;;5060417;28;20112;-63
2022/08/19 02:44:43;;;;;;;2.00;1.65;;;27.40;51.40;;;;;;5061279;28;20116;-63
2022/08/19 02:47:09;;;;;;;2.05;1.60;;;27.40;51.40;;;;;;5060893;28;20037;-63
2022/08/19 02:49:35;;;;;;;2.40;1.88;;;27.30;51.40;;;;;;5060649;28;20017;-64
2022/08/19 02:52:01;;;;;;;2.15;1.70;;;27.40;51.40;;;;;;5060709;28;20044;-63
2022/08/19 02:54:28;;;;;;;2.15;1.80;;;27.30;51.40;;;;;;5061221;28;20111;-64
2022/08/19 02:56:54;;;;;;;2.50;1.77;;;27.30;51.40;;;;;;5060614;28;20074;-63
2022/08/19 02:59:19;;;;;;;2.13;1.80;;;27.30;51.40;;;;;;5060706;28;20115;-63
2022/08/19 03:01:45;;;;;;;2.17;1.70;;;27.30;51.30;;;;;;5059066;28;20106;-63
2022/08/19 03:04:15;;;;;;;2.30;1.85;;;27.40;51.50;;;;;;5060961;28;20464;-63
2022/08/19 03:06:43;;;;;;;2.00;1.73;;;27.30;51.40;;;;;;5060771;28;20412;-63
2022/08/19 03:09:09;;;;;;;1.80;1.50;;;27.30;51.40;;;;;;5060405;28;20028;-63
2022/08/19 03:11:35;;;;;;;2.10;1.70;;;27.30;51.40;;;;;;5060046;28;20112;-63
2022/08/19 03:14:01;;;;;;;2.30;1.80;;;27.30;51.30;;;;;;5059874;28;20178;-63
2022/08/19 03:16:31;;;;;;;2.20;1.80;;;27.30;51.40;;;;;;5061170;28;20035;-63
2022/08/19 03:19:00;;;;;;;2.30;1.75;;;27.30;51.40;;;;;;5060676;28;20032;-63
2022/08/19 03:21:28;;;;;;;2.15;1.70;;;27.30;51.40;;;;;;5058972;28;20037;-63
2022/08/19 03:23:55;;;;;;;2.67;1.90;;;27.30;51.40;;;;;;5059323;28;20362;-64
2022/08/19 03:26:21;;;;;;;2.03;1.65;;;27.30;51.40;;;;;;5060388;28;20035;-63
2022/08/19 03:28:49;;;;;;;2.10;1.65;;;27.30;51.40;;;;;;5060357;28;20024;-63
2022/08/19 03:31:16;;;;;;;2.10;1.77;;;27.30;51.40;;;;;;5058891;28;20116;-63
2022/08/19 03:33:42;;;;;;;2.38;1.90;;;27.30;51.40;;;;;;5058676;28;20100;-63
2022/08/19 03:36:14;;;;;;;1.90;1.60;;;27.30;51.40;;;;;;5060789;28;20147;-63
2022/08/19 03:38:46;;;;;;;1.98;1.63;;;27.30;51.40;;;;;;5059657;28;20520;-63
2022/08/19 03:41:15;;;;;;;2.00;1.70;;;27.30;51.40;;;;;;5060763;28;20472;-63
2022/08/19 03:43:41;;;;;;;;;;;27.30;51.40;;;;;;5060667;28;20082;-63
2022/08/19 03:46:10;;;;;;;2.05;1.67;;;27.30;51.50;;;;;;5059654;28;19904;-63
2022/08/19 03:48:38;;;;;;;1.83;1.60;;;27.30;51.50;;;;;;5059719;28;20029;-63
2022/08/19 03:51:04;;;;;;;1.75;1.55;;;27.30;51.40;;;;;;5061020;28;20033;-63
2022/08/19 03:53:30;;;;;;;2.40;1.73;;;27.20;51.30;;;;;;5060042;28;20025;-63
2022/08/19 03:55:59;;;;;;;1.98;1.65;;;27.20;51.40;;;;;;5058717;28;20103;-63
2022/08/19 03:58:25;;;;;;;2.22;1.70;;;27.20;51.40;;;;;;5059921;28;20055;-63
2022/08/19 04:00:51;;;;;;;2.03;1.58;;;27.20;51.40;;;;;;5058821;28;20028;-63
2022/08/19 04:03:18;;;;;;;2.38;1.75;;;27.20;51.40;;;;;;5063779;28;20513;-63
2022/08/19 04:05:44;;;;;;;2.00;1.73;;;27.20;51.40;;;;;;5062028;28;20021;-63
2022/08/19 04:08:09;;;;;;;2.03;1.63;;;27.20;51.40;;;;;;5064032;28;20020;-63
2022/08/19 04:10:36;;;;;;;2.20;1.80;;;27.20;51.40;;;;;;5062730;28;20028;-63
2022/08/19 04:13:05;;;;;;;2.20;1.60;;;27.20;51.40;;;;;;5064455;28;20136;-63
2022/08/19 04:15:35;;;;;;;2.17;1.70;;;27.20;51.40;;;;;;5064785;28;20155;-63
2022/08/19 04:18:01;;;;;;;1.80;1.58;;;27.20;51.40;;;;;;5065388;28;20104;-63
2022/08/19 04:20:28;;;;;;;2.10;1.60;;;27.20;51.40;;;;;;5062943;28;20053;-63
2022/08/19 04:22:53;;;;;;;2.35;1.75;;;27.20;51.40;;;;;;5063974;28;20435;-63
2022/08/19 04:25:19;;;;;;;2.55;1.88;;;27.20;51.40;;;;;;5063143;28;20446;-62
2022/08/19 04:27:46;;;;;;;2.58;1.90;;;27.20;51.40;;;;;;5063340;28;20114;-64
2022/08/19 04:30:13;;;;;;;1.83;1.50;;;27.20;51.40;;;;;;5062102;28;20050;-62
2022/08/19 04:32:39;;;;;;;2.08;1.80;;;27.20;51.40;;;;;;5060442;28;20060;-63
2022/08/19 04:35:05;;;;;;;1.83;1.60;;;27.20;51.40;;;;;;5062480;28;20461;-62
2022/08/19 04:37:33;;;;;;;1.85;1.60;;;27.20;51.40;;;;;;5064556;28;20391;-62
2022/08/19 04:42:43;;;;;;;2.10;1.80;;;27.10;51.30;;;;;;5062216;28;20027;-63
2022/08/19 04:45:13;;;;;;;2.13;1.80;;;27.10;51.30;;;;;;5059763;28;20029;-63
2022/08/19 04:47:41;;;;;;;1.90;1.70;;;27.10;51.30;;;;;;5061200;28;20063;-64
2022/08/19 04:50:08;;;;;;;1.80;1.55;;;27.10;51.30;;;;;;5063250;28;20049;-62
2022/08/19 04:52:34;;;;;;;1.98;1.70;;;27.10;51.30;;;;;;5059536;28;20068;-62
2022/08/19 04:55:00;;;;;;;2.20;1.70;;;27.10;51.30;;;;;;5062427;28;20054;-62
2022/08/19 04:57:26;;;;;;;1.90;1.70;;;27.10;51.40;;;;;;5062636;28;20115;-62
2022/08/19 04:59:56;;;;;;;2.33;1.80;;;27.10;51.40;;;;;;5063249;28;20035;-63
2022/08/19 05:02:25;;;;;;;2.53;1.83;;;27.10;51.40;;;;;;5062123;28;20391;-62
2022/08/19 05:04:57;;;;;;;2.13;1.63;;;27.10;51.30;;;;;;5062486;28;20033;-63
2022/08/19 05:07:22;;;;;;;2.05;1.75;;;27.10;51.40;;;;;;5062479;28;20119;-62
2022/08/19 05:09:48;;;;;;;2.10;1.80;;;27.10;51.40;;;;;;5063023;28;20024;-63
2022/08/19 05:12:14;;;;;;;2.33;1.90;;;27.10;51.30;;;;;;5061152;28;20045;-63
2022/08/19 05:14:39;;;;;;;1.80;1.50;;;27.10;51.40;;;;;;5062099;28;20056;-63
2022/08/19 05:17:05;;;;;;;2.53;1.80;;;27.10;51.30;;;;;;5063259;28;20055;-63
2022/08/19 05:22:35;;;;;;;2.47;1.90;;;27.10;51.40;;;;;;5062417;28;20507;-63
2022/08/19 05:25:10;;;;;;;2.08;1.80;;;27.10;51.40;;;;;;5061380;28;20464;-63
2022/08/19 05:27:35;;;;;;;2.15;1.75;;;27.10;51.40;;;;;;5060249;28;20024;-63
2022/08/19 05:30:01;;;;;;;2.33;1.80;;;27.10;51.40;;;;;;5061545;28;20104;-63
2022/08/19 05:32:27;;;;;;;2.20;1.80;;;27.00;51.30;;;;;;5061526;28;20120;-63
2022/08/19 05:34:53;;;;;;;2.28;1.75;;;27.00;51.30;;;;;;5062736;28;20020;-63
2022/08/19 05:37:19;;;;;;;2.17;1.77;;;27.00;51.30;;;;;;5062400;28;20538;-63
2022/08/19 05:39:45;;;;;;;2.20;1.70;;;27.00;51.30;;;;;;5061411;28;20058;-63
2022/08/19 05:42:11;;;;;;;2.17;1.85;;;27.00;51.30;;;;;;5061741;28;20078;-62
2022/08/19 05:44:43;;;;;;;2.33;1.70;;;27.00;51.30;;;;;;5061270;28;20025;-63
2022/08/19 05:47:08;;;;;;;2.40;1.80;;;27.00;51.30;;;;;;5061106;28;20104;-62
2022/08/19 05:49:35;;;;;;;1.90;1.65;;;27.00;51.30;;;;;;5062760;28;20105;-62
2022/08/19 05:52:04;;;;;;;2.08;1.80;;;27.00;51.30;;;;;;5060327;28;20062;-62
2022/08/19 05:54:29;;;;;;;2.13;1.93;;;27.00;51.30;;;;;;5060371;28;20028;-62
2022/08/19 05:56:55;;;;;;;1.90;1.70;;;27.00;51.30;;;;;;5061040;28;20432;-62
2022/08/19 05:59:21;;;;;;;2.60;1.83;;;27.00;51.80;;;;;;5062210;28;20032;-62
2022/08/19 06:01:51;;;;;;;2.13;1.70;;;27.00;51.30;;;;;;5060258;28;20401;-63
2022/08/19 06:04:19;;;;;;;2.72;1.90;;;27.00;51.30;;;;;;5060206;28;20538;-63
2022/08/19 06:06:46;;;;;;;2.13;1.90;;;27.00;51.80;;;;;;5061742;28;20025;-63
2022/08/19 06:09:12;;;;;;;2.08;1.83;;;27.00;51.30;;;;;;5060932;28;20029;-63
2022/08/19 06:11:41;;;;;;;2.30;1.70;;;27.00;51.30;;;;;;5060732;28;20021;-63
2022/08/19 06:14:10;;;;;;;2.00;1.70;;;27.00;51.30;;;;;;5061571;28;20055;-63
2022/08/19 06:16:38;;;;;;;;;;;27.00;51.30;;;;;;5061087;28;20045;-63
2022/08/19 06:19:07;;;;;;;2.20;1.80;;;27.00;51.30;;;;;;5062133;28;20295;-63
2022/08/19 06:21:33;;;;;;;;;;;27.00;51.30;;;;;;5059703;28;20032;-63
2022/08/19 06:23:59;;;;;;;1.98;1.60;;;27.00;51.30;;;;;;5059823;28;20379;-63
2022/08/19 06:26:26;;;;;;;2.33;1.90;;;27.00;51.30;;;;;;5061298;28;20074;-63
2022/08/19 06:28:52;;;;;;;2.10;1.85;;;27.00;51.30;;;;;;5061221;28;20564;-63
2022/08/19 06:31:21;;;;;;;2.20;1.80;;;27.00;51.30;;;;;;5060348;28;20122;-63
2022/08/19 06:33:47;;;;;;;;;;;27.00;51.30;;;;;;5060701;28;20396;-63
2022/08/19 06:36:20;;;;;;;2.17;1.83;;;27.00;51.30;;;;;;5060807;28;19908;-63
2022/08/19 06:38:46;;;;;;;2.42;1.90;;;27.00;51.50;;;;;;5060687;28;20159;-63
2022/08/19 06:41:11;;;;;;;2.22;1.83;;;26.90;51.30;;;;;;5061118;28;20145;-63
2022/08/19 06:43:37;;;;;;;2.33;1.80;;;26.90;51.20;;;;;;5060928;28;20021;-63
2022/08/19 06:46:03;;;;;;;2.05;1.83;;;27.00;51.30;;;;;;5059573;28;20017;-63
2022/08/19 06:48:30;;;;;;;2.20;1.85;;;27.00;51.30;;;;;;5061182;28;20028;-68
2022/08/19 06:50:55;;;;;;;2.40;1.90;;;27.00;51.30;;;;;;5060560;28;20040;-67
2022/08/19 06:53:21;;;;;;;2.15;1.80;;;26.90;51.30;;;;;;5060914;28;20022;-67
2022/08/19 06:55:47;;;;;;;2.28;1.88;;;26.90;51.30;;;;;;5059761;28;20479;-67
2022/08/19 06:58:13;;;;;;;2.08;1.83;;;26.90;51.30;;;;;;5059298;28;20029;-66
2022/08/19 07:00:39;;;;;;;2.05;1.85;;;26.90;51.30;;;;;;5060165;28;20028;-67
2022/08/19 07:03:05;;;;;;;2.42;2.03;;;26.90;51.30;;;;;;5058580;28;20047;-67
2022/08/19 07:05:31;;;;;;;2.28;1.90;;;26.90;51.30;;;;;;5060457;28;20484;-67
2022/08/19 07:07:57;;;;;;;2.55;2.13;;;26.90;51.30;;;;;;5060096;28;20086;-67
2022/08/19 07:10:22;;;;;;;2.20;1.92;;;26.90;51.30;;;;;;5042455;28;20071;-67
2022/08/19 07:12:49;;;;;;;2.92;2.03;;;26.90;51.30;;;;;;5059816;28;20083;-67
2022/08/19 07:15:16;;;;;;;2.40;2.08;;;26.90;51.30;;;;;;5059805;28;20066;-67
2022/08/19 07:17:43;;;;;;;2.38;2.00;;;26.90;51.40;;;;;;5057727;28;20025;-67
2022/08/19 07:20:10;;;;;;;2.45;2.05;;;26.90;51.40;;;;;;5060826;28;20068;-67
2022/08/19 07:22:39;;;;;;;2.35;2.15;;;26.90;51.40;;;;;;5058685;28;20057;-67
2022/08/19 07:25:08;;;;;;;2.55;2.20;;;26.90;51.40;;;;;;5059374;28;20029;-67
2022/08/19 07:27:34;;;;;;;2.30;2.00;;;26.90;51.40;;;;;;5059670;28;20024;-67
2022/08/19 07:30:00;;;;;;;2.30;2.10;;;26.90;51.40;;;;;;5060776;28;20365;-67
2022/08/19 07:32:26;;;;;;;2.67;2.42;;;26.90;51.40;;;;;;5059611;28;20033;-67
2022/08/19 07:34:52;;;;;;;2.45;2.20;;;26.90;51.50;;;;;;5060067;28;20017;-66
2022/08/19 07:37:17;;;;;;;2.60;2.22;;;26.90;51.50;;;;;;5064493;28;20029;-66
2022/08/19 07:39:43;;;;;;;2.65;2.25;;;26.90;51.50;;;;;;5064460;28;20512;-67
2022/08/19 07:42:10;;;;;;;2.67;2.20;;;26.90;51.50;;;;;;5063146;28;20453;-66
2022/08/19 07:44:37;;;;;;;2.72;2.22;;;26.90;51.50;;;;;;5065063;28;20064;-67
2022/08/19 07:47:03;;;;;;;2.70;2.30;;;26.90;51.50;;;;;;5062478;28;20025;-66
2022/08/19 07:49:29;;;;;;;2.90;2.50;;;26.90;51.50;;;;;;5046457;28;20027;-66
2022/08/19 07:51:59;;;;;;;2.83;2.40;;;26.90;51.60;;;;;;5063690;28;20029;-66
2022/08/19 07:54:25;;;;;;;;;;;26.90;51.60;;;;;;5061281;28;20021;-66
2022/08/19 07:56:51;;;;;;;2.95;2.60;;;26.90;51.60;;;;;;5064094;28;20030;-66
2022/08/19 07:59:17;;;;;;;2.90;2.58;;;26.90;51.60;;;;;;5064196;28;20157;-66
2022/08/19 08:01:44;;;;;;;3.00;2.65;;;26.90;51.60;;;;;;5063868;28;20032;-66
2022/08/19 08:09:41;;;;;;;2.80;2.47;;;26.90;52.10;;;;;;5043248;28;20523;-66
2022/08/19 08:12:17;;;;;;;2.90;2.60;;;26.80;51.50;;;;;;5043859;28;20036;-66
2022/08/19 08:14:47;;;;;;;3.45;2.83;;;26.90;51.60;;;;;;5043306;28;20360;-66
2022/08/19 08:17:14;;;;;;;3.08;2.78;;;26.80;51.50;;;;;;5039922;28;20025;-66
2022/08/19 08:19:41;;;;;;;2.90;2.38;;;26.80;51.50;;;;;;5043269;28;20074;-66
2022/08/19 08:22:07;;;;;;;3.25;2.60;;;26.80;51.50;;;;;;5044153;28;20418;-66
2022/08/19 08:24:33;;;;;;;3.05;2.60;;;26.80;51.50;;;;;;5042785;28;20373;-66
2022/08/19 08:27:00;;;;;;;3.00;2.70;;;26.80;51.50;;;;;;5041364;28;20055;-66
2022/08/19 08:29:30;;;;;;;3.30;2.80;;;26.80;51.50;;;;;;5043237;28;20021;-66
2022/08/19 08:31:57;;;;;;;3.08;2.78;;;26.80;51.50;;;;;;5057725;28;20067;-66
2022/08/19 08:34:23;;;;;;;3.00;2.65;;;26.80;52.00;;;;;;5063529;28;20020;-66
2022/08/19 08:36:51;;;;;;;3.00;2.65;;;26.80;51.50;;;;;;5077240;28;20064;-66
2022/08/19 08:39:18;;;;;;;2.97;2.60;;;26.80;51.50;;;;;;5062036;28;20128;-66
2022/08/19 08:42:20;;;;;;;3.03;2.72;;;26.80;51.50;;;;;;5063238;28;20033;-66
2022/08/19 08:44:58;;;;;;;3.92;3.10;;;26.80;51.50;;;;;;5061014;28;20480;-67
2022/08/19 08:47:26;;;;;;;3.17;2.78;;;26.80;51.50;;;;;;5063063;28;20124;-67
2022/08/19 08:50:01;;;;;;;3.10;2.80;;;26.80;51.50;;;;;;5062312;28;20057;-67
2022/08/19 08:52:35;;;;;;;2.90;2.60;;;26.80;51.50;;;;;;5062620;28;20499;-67
2022/08/19 08:55:07;;;;;;;3.13;2.55;;;26.80;51.50;;;;;;5062841;28;20513;-68
2022/08/19 08:57:42;;;;;;;3.00;2.63;;;26.80;51.50;;;;;;5063694;28;20593;-67
2022/08/19 09:00:18;;;;;;;3.60;3.15;;;26.80;51.50;;;;;;5062787;28;20047;-66
2022/08/19 09:02:44;;;;;;;3.10;2.80;;;26.80;51.50;;;;;;5063075;28;20488;-67
2022/08/19 09:05:12;;;;;;;3.40;2.92;;;26.80;52.00;;;;;;5062469;28;20425;-67
2022/08/19 09:07:50;;;;;;;3.30;3.00;;;26.80;51.50;;;;;;5062227;28;20057;-67
2022/08/19 09:10:23;;;;;;;3.60;2.92;;;26.80;51.50;;;;;;5062720;28;20542;-67
2022/08/19 09:13:04;;;;;;;3.20;2.80;;;26.80;51.50;;;;;;5035655;28;20500;-67
2022/08/19 09:15:44;;;;;;;3.30;2.90;;;26.80;51.50;;;;;;5041961;28;20061;-67
2022/08/19 09:18:10;;;;;;;3.50;3.03;;;26.80;51.50;;;;;;5041896;28;20021;-67
2022/08/19 09:20:36;;;;;;;3.47;2.95;;;26.80;51.50;;;;;;5041664;28;20033;-67
2022/08/19 09:23:01;;;;;;;3.40;2.92;;;26.80;51.50;;;;;;5040629;28;20035;-67
2022/08/19 09:25:27;;;;;;;3.22;2.83;;;26.80;51.50;;;;;;5042384;28;20059;-67
2022/08/19 09:27:54;;;;;;;3.10;2.80;;;26.80;51.50;;;;;;5041249;28;20033;-67
2022/08/19 09:30:25;;;;;;;3.75;3.28;;;26.80;51.50;;;;;;5038856;28;20384;-67
2022/08/19 09:32:52;;;;;;;3.35;3.00;;;26.80;51.50;;;;;;5020557;28;20048;-67
2022/08/19 09:35:23;;;;;;;3.35;3.05;;;26.80;51.50;;;;;;5022986;28;20975;-67
2022/08/19 09:37:49;;;;;;;3.30;3.00;;;26.80;51.50;;;;;;5022276;28;20482;-67
2022/08/19 09:40:16;;;;;;;3.63;3.20;;;26.80;51.50;;;;;;5021162;28;20374;-67
2022/08/19 09:42:47;;;;;;;3.75;3.35;;;26.80;51.50;;;;;;5021829;28;20070;-67
2022/08/19 09:45:14;;;;;;;3.47;3.03;;;26.80;51.50;;;;;;5023249;28;20390;-67
2022/08/19 09:47:40;;;;;;;3.53;3.08;;;26.80;51.50;;;;;;5021662;28;20033;-67
2022/08/19 09:50:08;;;;;;;3.38;3.08;;;26.80;51.50;;;;;;5020786;28;20048;-67
2022/08/19 09:52:36;;;;;;;3.50;3.20;;;26.80;51.50;;;;;;5022209;28;20120;-67
2022/08/19 09:55:03;;;;;;;3.55;3.25;;;26.80;51.50;;;;;;5022055;28;20032;-67
2022/08/19 09:57:29;;;;;;;3.42;3.10;;;26.80;51.50;;;;;;5021586;28;20133;-67
2022/08/19 09:59:55;;;;;;;3.38;3.00;;;26.80;51.50;;;;;;5020980;28;20474;-67
2022/08/19 10:02:20;;;;;;;3.50;3.20;;;26.80;51.50;;;;;;5040246;28;20052;-67
2022/08/19 10:07:30;;;;;;;3.67;3.10;;;26.80;51.50;;;;;;5039662;28;20051;-67
2022/08/19 10:09:56;;;;;;;3.78;3.22;;;26.80;51.50;;;;;;5041318;28;20182;-67
2022/08/19 10:12:22;;;;;;;3.50;3.20;;;26.80;51.50;;;;;;5044741;28;20052;-66
2022/08/19 10:14:48;;;;;;;3.55;3.10;;;26.80;51.50;;;;;;5060024;28;20131;-67
2022/08/19 10:17:14;;;;;;;3.28;2.97;;;26.80;51.50;;;;;;5060580;28;20036;-67
2022/08/19 10:19:40;;;;;;;4.03;3.50;;;26.80;51.50;;;;;;5060449;28;20430;-66
2022/08/19 10:22:06;;;;;;;3.67;3.38;;;26.80;51.50;;;;;;5059771;28;20025;-67
2022/08/19 10:24:33;;;;;;;3.65;3.35;;;26.80;51.50;;;;;;5061017;28;20503;-66
2022/08/19 10:27:00;;;;;;;3.58;3.15;;;26.80;51.50;;;;;;5059141;28;20029;-66
2022/08/19 10:29:28;;;;;;;3.65;3.17;;;26.80;51.50;;;;;;5060215;28;20433;-66
2022/08/19 10:31:54;;;;;;;3.78;3.38;;;26.80;51.50;;;;;;5058521;28;20109;-66
2022/08/19 10:34:19;;;;;;;4.30;3.60;;;26.80;51.50;;;;;;5059724;28;20025;-67
2022/08/19 10:36:45;;;;;;;4.05;3.65;;;26.70;51.40;;;;;;5060931;28;20039;-67
2022/08/19 10:39:12;;;;;;;3.83;3.42;;;26.80;51.50;;;;;;5068944;28;20028;-67
2022/08/19 10:41:39;;;;;;;3.90;3.50;;;26.80;51.50;;;;;;5080249;28;20023;-67
2022/08/19 10:44:10;;;;;;;3.70;3.22;;;26.80;51.50;;;;;;5080345;28;20403;-67
2022/08/19 10:46:41;;;;;;;3.40;3.08;;;26.70;51.30;;;;;;5080328;28;20039;-67
2022/08/19 10:49:08;;;;;;;4.05;3.53;;;26.70;51.30;;;;;;5080732;28;20479;-66
2022/08/19 10:54:18;;;;;;;3.50;3.20;;;26.70;51.30;;;;;;5079920;28;20035;-67
2022/08/19 10:56:53;;;;;;;4.75;3.90;;;26.70;51.30;;;;;;5079706;28;20066;-67
2022/08/19 10:59:25;;;;;;;3.65;3.33;;;26.70;51.30;;;;;;5079895;28;20399;-67
2022/08/19 11:01:51;;;;;;;4.13;3.47;;;26.70;51.30;;;;;;5065037;28;20484;-66
2022/08/19 11:04:19;;;;;;;4.05;3.60;;;26.70;51.40;;;;;;5060077;28;20082;-67
2022/08/19 11:06:47;;;;;;;3.53;3.22;;;26.70;51.90;;;;;;5059748;28;20032;-67
2022/08/19 11:09:17;;;;;;;4.20;3.40;;;26.70;51.30;;;;;;5061198;28;20518;-67
2022/08/19 11:11:44;;;;;;;3.63;3.22;;;26.70;51.40;;;;;;5064201;28;20032;-67
2022/08/19 11:14:13;;;;;;;4.28;3.67;;;26.70;51.40;;;;;;5063872;28;20484;-67
2022/08/19 11:16:40;;;;;;;4.20;3.63;;;26.70;51.40;;;;;;5063565;28;20020;-67
2022/08/19 11:19:10;;;;;;;4.90;4.28;;;26.70;51.50;;;;;;5065255;28;20484;-67
2022/08/19 11:21:39;;;;;;;5.80;4.55;;;26.70;51.60;;;;;;5063352;28;20457;-67
2022/08/19 11:24:09;;;;;;;;;;;26.70;51.60;;;;;;5063658;28;20534;-67
2022/08/19 11:26:36;;;;;;;5.13;4.47;;;26.70;51.80;;;;;;5065093;28;19927;-67
2022/08/19 11:29:04;;;;;;;7.43;4.80;;;26.70;51.80;;;;;;5064339;28;20028;-67
2022/08/19 11:31:33;;;;;;;5.65;5.00;;;26.70;51.70;;;;;;5063867;28;20067;-67
2022/08/19 11:34:02;;;;;;;6.88;4.82;;;26.70;51.90;;;;;;5063368;28;20477;-67
2022/08/19 11:36:28;;;;;;;;;;;26.70;51.90;;;;;;5061992;28;20021;-67
2022/08/19 11:38:54;;;;;;;6.68;4.57;;;26.70;51.90;;;;;;5063921;28;20435;-67
2022/08/19 11:41:22;;;;;;;6.05;4.97;;;26.70;52.40;;;;;;5065312;28;20029;-67
2022/08/19 11:43:49;;;;;;;5.68;5.07;;;26.70;51.80;;;;;;5063762;28;20071;-67
2022/08/19 11:46:16;;;;;;;6.10;5.10;;;26.70;51.80;;;;;;5063602;28;20033;-67
2022/08/19 11:48:42;;;;;;;6.20;4.57;;;26.70;51.80;;;;;;5064991;28;20033;-67
2022/08/19 11:51:14;;;;;;;6.30;4.70;;;26.70;52.40;;;;;;5063532;28;20032;-67
2022/08/19 11:53:40;;;;;;;5.80;4.35;;;26.70;51.80;;;;;;5065011;28;20025;-67
2022/08/19 11:56:08;;;;;;;6.57;5.00;;;26.60;51.70;;;;;;5062955;28;20035;-67
2022/08/19 11:58:34;;;;;;;6.20;4.90;;;26.70;51.70;;;;;;5062469;28;20024;-67
2022/08/19 12:01:00;;;;;;;6.22;4.72;;;26.70;51.70;;;;;;5064386;28;20029;-67
2022/08/19 12:03:26;;;;;;;6.07;4.70;;;26.70;51.70;;;;;;5062911;28;20029;-67
2022/08/19 12:05:52;;;;;;;6.57;4.95;;;26.70;51.80;;;;;;5063013;28;20032;-67
2022/08/19 12:08:18;;;;;;;5.63;4.45;;;26.70;51.90;;;;;;5063178;28;20028;-67
2022/08/19 12:10:45;;;;;;;5.72;4.70;;;26.70;51.80;;;;;;5062917;28;20100;-67
2022/08/19 12:13:18;;;;;;;5.28;4.32;;;26.70;52.00;;;;;;5063228;28;20040;-67
2022/08/19 12:15:45;;;;;;;5.05;4.22;;;26.70;52.00;;;;;;5063685;28;20075;-67
2022/08/19 12:18:13;;;;;;;5.72;4.70;;;26.70;52.00;;;;;;5062760;28;20100;-67
2022/08/19 12:20:40;;;;;;;5.63;5.00;;;26.70;52.00;;;;;;5060662;28;20029;-68
2022/08/19 12:23:09;;;;;;;5.82;4.50;;;26.70;52.00;;;;;;5062828;28;20060;-68
2022/08/19 12:25:35;;;;;;;5.85;4.38;;;26.70;52.00;;;;;;5062696;28;20055;-68
2022/08/19 12:28:01;;;;;;;4.85;4.32;;;26.70;52.00;;;;;;5062259;28;20481;-68
2022/08/19 12:30:26;;;;;;;5.00;4.07;;;26.70;52.00;;;;;;5060124;28;20108;-67
2022/08/19 12:32:53;;;;;;;5.60;4.50;;;26.70;52.50;;;;;;5062910;28;20032;-67
2022/08/19 12:35:22;;;;;;;5.63;4.43;;;26.70;52.00;;;;;;5061798;28;20066;-67
2022/08/19 12:37:48;;;;;;;5.65;4.57;;;26.70;51.90;;;;;;5062253;28;20040;-68
2022/08/19 12:40:16;;;;;;;5.00;4.40;;;26.70;51.90;;;;;;5063077;28;20492;-68
2022/08/19 12:42:42;;;;;;;5.30;4.40;;;26.70;51.90;;;;;;5063874;28;20042;-68
2022/08/19 12:45:12;;;;;;;5.45;4.40;;;26.70;51.80;;;;;;5062751;28;20148;-68
2022/08/19 12:47:38;;;;;;;5.57;4.50;;;26.70;51.80;;;;;;5069166;28;20063;-68
2022/08/19 12:50:06;;;;;;;5.03;4.32;;;26.70;51.80;;;;;;5062914;28;20050;-68
2022/08/19 12:52:32;;;;;;;5.47;4.50;;;26.70;51.70;;;;;;5061243;28;20027;-68
2022/08/19 12:54:58;;;;;;;5.25;4.53;;;26.70;51.70;;;;;;5062879;28;20472;-68
2022/08/19 12:57:26;;;;;;;5.35;4.35;;;26.70;51.70;;;;;;5061150;28;20039;-68
2022/08/19 12:59:56;;;;;;;5.50;4.38;;;26.70;52.20;;;;;;5063380;28;20063;-68
2022/08/19 13:02:22;;;;;;;;;;;26.70;51.70;;;;;;5062195;28;20033;-68
2022/08/19 13:04:48;;;;;;;4.60;4.13;;;26.70;51.70;;;;;;5063120;28;19914;-68
2022/08/19 13:07:14;;;;;;;5.28;4.65;;;26.70;51.70;;;;;;5062097;28;20021;-68